Time;durP1;ratioP1;P1;durP2;ratioP2;P2;SDS_P1;SDS_P2;PMS_P1;PMS_P2;Temp;Humidity;BMP_temperature;BMP_pressure;BME280_temperature;BME280_humidity;BME280_pressure;Samples;Min_cycle;Max_cycle;Signal;HPM_P1;HPM_P2
2023/10/11 00:00:56;;;;;;;6.28;3.63;;;;;;;18.53;61.77;101430.84;5142153;27;20221;-62
2023/10/11 00:03:32;;;;;;;7.25;4.45;;;;;;;18.52;61.69;101426.47;5154625;27;20135;-62
2023/10/11 00:06:04;;;;;;;7.97;3.97;;;;;;;18.52;61.77;101425.66;5147705;27;20119;-61
2023/10/11 00:08:39;;;;;;;7.25;3.95;;;;;;;18.51;61.73;101421.28;5148568;27;20051;-62
2023/10/11 00:11:08;;;;;;;8.77;4.22;;;;;;;18.50;61.63;101423.19;5139021;27;20399;-62
2023/10/11 00:13:36;;;;;;;6.68;3.90;;;;;;;18.49;61.57;101432.44;5143494;27;20047;-62
2023/10/11 00:16:08;;;;;;;9.68;3.92;;;;;;;18.47;61.82;101428.34;5153315;27;20062;-62
2023/10/11 00:18:38;;;;;;;7.68;3.45;;;;;;;18.46;61.84;101419.34;5145733;27;20107;-62
2023/10/11 00:21:10;;;;;;;9.50;4.95;;;;;;;18.42;61.65;101420.94;5144800;27;20464;-62
2023/10/11 00:23:41;;;;;;;7.03;4.22;;;;;;;18.44;61.54;101416.06;5148546;27;20062;-62
2023/10/11 00:26:09;;;;;;;8.65;4.03;;;;;;;18.43;61.55;101425.31;5146845;27;20050;-62
2023/10/11 00:28:38;;;;;;;7.13;3.95;;;;;;;18.43;61.60;101421.75;5150130;27;20047;-62
2023/10/11 00:31:16;;;;;;;7.38;4.47;;;;;;;18.42;61.55;101417.41;5149939;27;20047;-62
2023/10/11 00:33:45;;;;;;;6.53;3.55;;;;;;;18.41;61.63;101421.19;5149960;27;20043;-62
2023/10/11 00:36:15;;;;;;;11.10;4.00;;;;;;;18.39;61.49;101417.91;5147410;27;20102;-62
2023/10/11 00:38:47;;;;;;;7.82;3.88;;;;;;;18.38;61.39;101425.25;5152396;27;20152;-62
2023/10/11 00:41:17;;;;;;;9.70;4.32;;;;;;;18.37;61.45;101426.34;5149448;27;20043;-62
2023/10/11 00:43:50;;;;;;;7.47;4.18;;;;;;;18.36;61.16;101421.97;5147990;27;20055;-63
2023/10/11 00:46:22;;;;;;;6.88;3.85;;;;;;;18.36;61.27;101415.72;5148870;27;20055;-63
2023/10/11 00:48:54;;;;;;;6.28;3.53;;;;;;;18.34;61.20;101413.25;5154977;27;20074;-63
2023/10/11 00:51:24;;;;;;;8.07;4.10;;;;;;;18.34;61.32;101413.25;5149580;27;20047;-63
2023/10/11 00:53:54;;;;;;;6.43;4.30;;;;;;;18.33;61.31;101413.50;5149332;27;20047;-63
2023/10/11 00:56:22;;;;;;;8.38;3.80;;;;;;;18.32;61.27;101409.16;5150636;27;20043;-63
2023/10/11 00:58:51;;;;;;;8.05;4.53;;;;;;;18.31;61.26;101408.34;5154109;27;20043;-63
2023/10/11 01:01:22;;;;;;;12.05;4.45;;;;;;;18.31;61.36;101412.94;5142548;27;20093;-63
2023/10/11 01:03:51;;;;;;;7.28;3.80;;;;;;;18.30;61.04;101406.69;5143784;27;20050;-63
2023/10/11 01:06:25;;;;;;;6.03;3.47;;;;;;;18.29;61.40;101409.66;5151291;27;20054;-63
2023/10/11 01:08:53;;;;;;;6.38;3.88;;;;;;;18.29;61.13;101402.34;5143583;27;20068;-62
2023/10/11 01:11:22;;;;;;;7.22;4.07;;;;;;;18.27;60.91;101401.78;5152376;27;20059;-63
2023/10/11 01:13:51;;;;;;;8.65;4.20;;;;;;;18.28;61.16;101400.69;5147069;27;20043;-62
2023/10/11 01:16:28;;;;;;;6.78;3.85;;;;;;;18.26;60.99;101402.84;5152093;27;20073;-65
2023/10/11 01:18:56;;;;;;;6.95;3.70;;;;;;;18.26;60.75;101405.56;5151493;27;20126;-62
2023/10/11 01:21:32;;;;;;;8.38;3.75;;;;;;;18.25;61.13;101401.22;5154705;27;20039;-62
2023/10/11 01:24:00;;;;;;;7.30;4.30;;;;;;;18.25;60.51;101400.38;5151853;27;20076;-62
2023/10/11 01:26:30;;;;;;;5.85;3.33;;;;;;;18.24;60.91;101399.56;5148697;27;20051;-62
2023/10/11 01:28:58;;;;;;;10.80;3.90;;;;;;;18.24;60.61;101393.31;5153904;27;20047;-62
2023/10/11 01:31:32;;;;;;;7.80;4.05;;;;;;;18.23;60.59;101391.66;5153899;27;20103;-62
2023/10/11 01:34:00;;;;;;;7.00;3.72;;;;;;;18.21;60.32;101392.75;5158604;27;20484;-62
2023/10/11 01:36:30;;;;;;;6.97;3.75;;;;;;;18.21;60.40;101389.19;5146129;27;20111;-62
2023/10/11 01:39:01;;;;;;;9.55;4.10;;;;;;;18.20;60.57;101388.38;5161882;27;20043;-62
2023/10/11 01:41:29;;;;;;;8.57;3.75;;;;;;;18.20;60.71;101385.66;5154721;27;20051;-62
2023/10/11 01:43:57;;;;;;;7.65;3.78;;;;;;;18.16;60.57;101387.25;5153801;27;20070;-62
2023/10/11 01:46:26;;;;;;;9.85;3.83;;;;;;;18.18;60.41;101379.66;5151052;27;20047;-62
2023/10/11 01:48:56;;;;;;;6.60;3.60;;;;;;;18.18;60.24;101381.56;5155499;27;20065;-62
2023/10/11 01:51:26;;;;;;;9.90;4.25;;;;;;;18.18;60.47;101384.28;5149042;27;20050;-62
2023/10/11 01:53:57;;;;;;;6.93;3.80;;;;;;;18.10;60.51;101368.44;5148622;27;20043;-63
2023/10/11 01:56:25;;;;;;;8.57;3.47;;;;;;;18.15;60.33;101380.19;5154915;27;20035;-62
2023/10/11 01:58:56;;;;;;;8.30;3.90;;;;;;;18.16;60.18;101378.28;5153873;27;20043;-62
2023/10/11 02:01:27;;;;;;;7.20;3.55;;;;;;;18.15;60.18;101382.06;5144729;27;20077;-61
2023/10/11 02:03:59;;;;;;;6.13;3.92;;;;;;;18.13;60.45;101373.34;5153059;27;20038;-61
2023/10/11 02:06:31;;;;;;;6.68;4.18;;;;;;;18.12;60.02;101367.09;5143193;27;20518;-63
2023/10/11 02:09:02;;;;;;;5.95;3.58;;;;;;;18.12;60.38;101363.56;5153480;27;20115;-62
2023/10/11 02:11:30;;;;;;;7.95;3.63;;;;;;;18.11;60.34;101360.00;5147259;27;20528;-62
2023/10/11 02:13:59;;;;;;;8.00;4.47;;;;;;;18.09;60.08;101362.16;5149311;27;20280;-62
2023/10/11 02:16:28;;;;;;;7.10;4.25;;;;;;;18.06;60.20;101348.25;5153493;27;20047;-62
2023/10/11 02:18:58;;;;;;;7.82;3.55;;;;;;;18.07;59.96;101349.91;5152839;27;20039;-63
2023/10/11 02:21:29;;;;;;;7.63;4.28;;;;;;;18.06;59.86;101354.53;5146493;27;20089;-61
2023/10/11 02:23:58;;;;;;;8.48;4.35;;;;;;;18.05;59.87;101346.63;5156475;27;20055;-62
2023/10/11 02:26:29;;;;;;;7.82;4.10;;;;;;;18.03;60.11;101341.44;5148607;27;20061;-62
2023/10/11 02:29:00;;;;;;;8.05;3.28;;;;;;;18.02;59.91;101342.53;5150573;27;20065;-61
2023/10/11 02:31:31;;;;;;;9.15;3.63;;;;;;;18.01;59.85;101340.88;5153739;27;20050;-62
2023/10/11 02:34:12;;;;;;;7.57;4.20;;;;;;;18.02;59.93;101338.97;5154871;27;20039;-62
2023/10/11 02:36:42;;;;;;;7.70;4.32;;;;;;;17.95;59.81;101331.03;5154170;27;20043;-61
2023/10/11 02:39:17;;;;;;;10.95;5.05;;;;;;;18.00;60.05;101341.13;5145133;27;20054;-62
2023/10/11 02:41:50;;;;;;;7.80;4.20;;;;;;;17.96;60.08;101332.69;5145545;27;20070;-62
2023/10/11 02:44:22;;;;;;;7.05;3.42;;;;;;;17.97;59.94;101328.06;5144518;27;20118;-62
2023/10/11 02:46:51;;;;;;;6.38;3.47;;;;;;;17.93;60.14;101330.47;5143643;27;20039;-62
2023/10/11 02:49:22;;;;;;;5.88;3.80;;;;;;;17.95;60.28;101333.75;5147394;27;20051;-62
2023/10/11 02:51:55;;;;;;;6.88;4.10;;;;;;;17.94;60.21;101334.00;5146470;27;20111;-62
2023/10/11 02:54:26;;;;;;;7.28;3.58;;;;;;;17.93;60.12;101335.09;5145006;27;20427;-62
2023/10/11 02:56:57;;;;;;;5.82;3.60;;;;;;;17.92;60.30;101339.72;5143890;27;20461;-62
2023/10/11 02:59:25;;;;;;;7.70;3.92;;;;;;;17.91;60.25;101340.78;5139354;27;20059;-62
2023/10/11 03:02:00;;;;;;;7.45;3.78;;;;;;;17.86;60.16;101332.59;5140767;27;20111;-62
2023/10/11 03:04:29;;;;;;;6.60;3.55;;;;;;;17.88;60.12;101333.97;5141354;27;20050;-63
2023/10/11 03:07:00;;;;;;;7.97;4.10;;;;;;;17.88;60.14;101339.41;5148624;27;20114;-62
2023/10/11 03:09:28;;;;;;;10.23;4.75;;;;;;;17.82;59.96;101326.84;5138536;27;20147;-62
2023/10/11 03:12:05;;;;;;;8.20;3.65;;;;;;;17.86;60.06;101327.97;5146613;27;20168;-63
2023/10/11 03:14:41;;;;;;;7.22;3.45;;;;;;;17.86;60.20;101327.97;5142092;27;20103;-63
2023/10/11 03:17:13;;;;;;;8.93;4.32;;;;;;;17.85;60.25;101333.66;5139934;27;20272;-63
2023/10/11 03:19:43;;;;;;;7.90;4.13;;;;;;;17.84;59.99;101332.03;5144633;27;20053;-63
2023/10/11 03:22:19;;;;;;;10.30;4.25;;;;;;;17.84;59.90;101327.41;5146709;27;20486;-62
2023/10/11 03:24:53;;;;;;;8.00;4.03;;;;;;;17.84;60.32;101335.56;5143866;27;20047;-62
2023/10/11 03:27:23;;;;;;;6.72;3.72;;;;;;;17.84;60.14;101323.88;5145596;27;20046;-62
2023/10/11 03:29:53;;;;;;;7.43;3.92;;;;;;;17.82;60.22;101315.97;5142812;27;20072;-62
2023/10/11 03:32:24;;;;;;;8.68;3.78;;;;;;;17.82;60.19;101309.72;5136150;27;20662;-63
2023/10/11 03:34:52;;;;;;;8.00;4.50;;;;;;;17.80;60.17;101315.41;5141498;27;20054;-63
2023/10/11 03:37:20;;;;;;;8.02;3.85;;;;;;;17.80;60.15;101322.75;5140541;27;20101;-63
2023/10/11 03:39:56;;;;;;;7.15;3.60;;;;;;;17.79;60.09;101312.94;5138249;27;20069;-63
2023/10/11 03:45:08;;;;;;;9.57;4.55;;;;;;;17.77;60.25;101307.78;5143617;27;20071;-62
2023/10/11 03:47:37;;;;;;;7.20;3.92;;;;;;;17.76;60.27;101311.56;5151766;27;20103;-62
2023/10/11 03:50:11;;;;;;;8.02;3.42;;;;;;;17.75;60.15;101303.66;5144793;27;20042;-62
2023/10/11 03:52:40;;;;;;;7.15;3.80;;;;;;;17.71;60.23;101302.53;5144931;27;20054;-62
2023/10/11 03:55:10;;;;;;;8.00;4.32;;;;;;;17.74;60.10;101318.34;5136954;27;20039;-61
2023/10/11 03:57:41;;;;;;;8.20;4.50;;;;;;;17.73;60.21;101312.09;5144818;27;20107;-62
2023/10/11 04:00:25;;;;;;;11.95;3.67;;;;;;;17.72;60.19;101315.88;5139805;27;20044;-62
2023/10/11 04:02:56;;;;;;;7.70;4.18;;;;;;;17.72;60.03;101313.16;5147029;27;20153;-63
2023/10/11 04:05:29;;;;;;;8.07;4.05;;;;;;;17.70;60.22;101309.88;5148880;27;20070;-62
2023/10/11 04:07:57;;;;;;;8.68;4.10;;;;;;;17.70;60.01;101307.16;5145134;27;20523;-62
2023/10/11 04:10:38;;;;;;;7.13;3.92;;;;;;;17.69;60.38;101310.13;5145278;27;20496;-62
2023/10/11 04:13:14;;;;;;;7.90;3.80;;;;;;;17.68;60.27;101309.31;5151165;27;20047;-62
2023/10/11 04:15:42;;;;;;;7.40;3.63;;;;;;;17.67;60.16;101301.41;5147675;27;20047;-63
2023/10/11 04:18:20;;;;;;;7.65;4.15;;;;;;;17.65;60.25;101296.22;5147827;27;20067;-61
2023/10/11 04:21:12;;;;;;;7.68;3.85;;;;;;;17.65;60.37;101296.22;5147235;27;20059;-61
2023/10/11 04:23:40;;;;;;;7.00;3.92;;;;;;;17.64;60.34;101288.31;5155820;27;20467;-63
2023/10/11 04:26:22;;;;;;;8.50;3.67;;;;;;;17.61;60.31;101284.22;5151050;27;20043;-62
2023/10/11 04:28:52;;;;;;;6.25;3.58;;;;;;;17.62;60.37;101276.88;5147190;27;20549;-62
2023/10/11 04:31:28;;;;;;;7.60;3.88;;;;;;;17.60;60.53;101276.31;5143098;27;20061;-62
2023/10/11 04:33:58;;;;;;;;;;;;;;;17.57;60.53;101278.47;5151901;27;20047;-63
2023/10/11 04:36:28;;;;;;;9.05;4.32;;;;;;;17.56;60.43;101282.28;5147803;27;19927;-61
2023/10/11 04:39:03;;;;;;;8.32;4.25;;;;;;;17.56;60.44;101289.59;5146887;27;20115;-61
2023/10/11 04:41:38;;;;;;;8.80;3.85;;;;;;;17.56;60.40;101276.00;5142242;27;20047;-62
2023/10/11 04:44:13;;;;;;;8.20;3.75;;;;;;;17.54;60.52;101278.16;5145212;27;20099;-62
2023/10/11 04:46:44;;;;;;;9.27;3.80;;;;;;;17.54;60.33;101286.31;5153309;27;20058;-62
2023/10/11 04:49:19;;;;;;;5.40;3.70;;;;;;;17.53;60.57;101293.66;5156561;27;20043;-62
2023/10/11 04:51:47;;;;;;;7.00;3.90;;;;;;;17.52;60.53;101307.50;5142595;27;20062;-62
2023/10/11 04:54:18;;;;;;;8.10;4.05;;;;;;;17.51;60.53;101301.25;5143184;27;20047;-62
2023/10/11 04:56:55;;;;;;;8.32;4.10;;;;;;;17.50;60.36;101307.75;5149704;27;20047;-63
2023/10/11 04:59:36;;;;;;;8.27;4.38;;;;;;;17.50;60.46;101296.06;5158463;27;20081;-66
2023/10/11 05:02:16;;;;;;;7.00;3.92;;;;;;;17.46;60.56;101290.31;5150799;27;20454;-65
2023/10/11 05:04:46;;;;;;;7.40;3.53;;;;;;;17.48;60.63;101298.22;5158896;27;20127;-64
2023/10/11 05:07:19;;;;;;;5.95;3.60;;;;;;;17.48;60.73;101290.88;5152295;27;20039;-63
2023/10/11 05:09:52;;;;;;;8.82;4.03;;;;;;;17.47;60.63;101291.97;5153447;27;20122;-63
2023/10/11 05:12:20;;;;;;;7.47;4.15;;;;;;;17.47;60.66;101297.41;5149157;27;20407;-63
2023/10/11 05:15:00;;;;;;;6.72;4.00;;;;;;;17.45;60.54;101299.56;5155931;27;20055;-64
2023/10/11 05:17:38;;;;;;;7.30;3.88;;;;;;;17.45;60.64;101306.88;5145178;27;20072;-62
2023/10/11 05:23:02;;;;;;;7.97;3.75;;;;;;;17.44;60.76;101303.34;5146031;27;20055;-63
2023/10/11 05:25:40;;;;;;;7.38;4.35;;;;;;;17.43;60.75;101298.16;4791687;27;9999983;-63
2023/10/11 05:28:08;;;;;;;9.85;3.95;;;;;;;17.43;60.90;101309.03;5151027;27;20047;-64
2023/10/11 05:30:37;;;;;;;7.60;4.25;;;;;;;17.41;60.62;101314.72;5150901;27;20074;-68
2023/10/11 05:33:30;;;;;;;12.13;4.30;;;;;;;17.41;60.78;101306.56;5147777;27;20306;-62
2023/10/11 05:36:16;;;;;;;10.75;4.40;;;;;;;17.41;60.82;101311.19;5142082;27;20122;-62
2023/10/11 05:52:34;;;;;;;10.93;4.30;;;;;;;17.39;60.78;101302.47;5141658;27;20062;-62
2023/10/11 05:55:06;;;;;;;9.95;4.85;;;;;;;17.38;60.96;101309.81;5135156;27;20047;-62
2023/10/11 05:57:34;;;;;;;7.72;3.53;;;;;;;17.37;60.79;101308.16;5134442;27;20480;-61
2023/10/11 06:00:17;;;;;;;6.00;3.90;;;;;;;17.37;60.88;101299.19;5148971;27;20076;-61
2023/10/11 06:02:47;;;;;;;11.73;4.35;;;;;;;17.35;61.32;101304.88;5149298;27;20051;-62
2023/10/11 06:05:17;;;;;;;6.07;4.18;;;;;;;17.37;61.12;101318.22;5150047;27;20098;-62
2023/10/11 06:07:44;;;;;;;8.45;4.68;;;;;;;17.36;61.18;101324.72;5142268;27;20044;-62
2023/10/11 06:10:19;;;;;;;6.65;3.58;;;;;;;17.36;61.20;101320.09;5151990;27;20487;-63
2023/10/11 06:12:47;;;;;;;7.75;4.15;;;;;;;17.34;61.08;101327.69;5150918;27;20047;-62
2023/10/11 06:15:18;;;;;;;16.23;4.65;;;;;;;17.33;61.01;101322.53;5159891;27;20047;-60
2023/10/11 06:17:49;;;;;;;9.75;4.40;;;;;;;17.32;61.19;101320.91;5153958;27;20166;-60
2023/10/11 06:20:26;;;;;;;11.60;3.65;;;;;;;17.30;61.16;101313.00;5140481;27;20552;-60
2023/10/11 06:22:55;;;;;;;12.07;4.30;;;;;;;17.31;61.34;101309.22;5142909;27;20048;-60
2023/10/11 06:28:13;;;;;;;10.50;4.15;;;;;;;17.29;61.26;101308.66;5160150;27;20043;-62
2023/10/11 06:30:42;;;;;;;9.38;4.50;;;;;;;17.31;61.31;101311.09;5136867;27;20114;-62
2023/10/11 06:33:12;;;;;;;8.55;4.15;;;;;;;17.31;61.39;101302.97;5155982;27;20053;-60
2023/10/11 06:35:45;;;;;;;8.93;4.45;;;;;;;17.30;61.30;101306.75;5150154;27;20467;-60
2023/10/11 06:38:13;;;;;;;6.47;3.88;;;;;;;17.29;61.51;101302.41;5142877;27;20430;-61
2023/10/11 06:40:47;;;;;;;8.70;4.38;;;;;;;17.29;61.25;101305.94;5151037;27;20047;-60
2023/10/11 06:43:14;;;;;;;7.03;3.30;;;;;;;17.28;61.48;101307.00;5147040;27;20047;-61
2023/10/11 06:45:43;;;;;;;8.63;4.80;;;;;;;17.27;61.31;101313.50;5149679;27;20077;-61
2023/10/11 06:48:14;;;;;;;9.13;4.18;;;;;;;17.21;61.36;101304.50;5152589;27;20136;-60
2023/10/11 06:50:42;;;;;;;8.60;3.80;;;;;;;17.27;61.37;101324.38;5159937;27;20149;-60
2023/10/11 06:53:11;;;;;;;8.88;4.10;;;;;;;17.26;61.51;101319.22;5142879;27;20047;-60
2023/10/11 06:55:40;;;;;;;6.32;3.55;;;;;;;17.26;61.19;101330.91;5154272;27;20046;-61
2023/10/11 06:58:15;;;;;;;6.97;3.90;;;;;;;17.26;61.30;101330.06;5137441;27;20115;-60
2023/10/11 07:00:46;;;;;;;7.97;4.15;;;;;;;17.26;61.31;101321.91;5146448;27;20049;-60
2023/10/11 07:03:26;;;;;;;7.70;4.65;;;;;;;17.25;61.54;101318.38;5142800;27;20047;-60
2023/10/11 07:05:58;;;;;;;5.88;3.88;;;;;;;17.25;61.34;101321.09;5140072;27;20039;-60
2023/10/11 07:08:32;;;;;;;11.75;5.32;;;;;;;17.23;61.35;101326.78;5141758;27;20085;-61
2023/10/11 07:11:10;;;;;;;7.70;4.68;;;;;;;17.23;61.26;101329.50;5145402;27;20070;-61
2023/10/11 07:13:54;;;;;;;7.72;3.83;;;;;;;17.24;61.35;101335.75;5138088;27;20055;-61
2023/10/11 07:16:27;;;;;;;11.88;5.00;;;;;;;17.24;61.33;101338.47;5137783;27;20070;-61
2023/10/11 07:18:58;;;;;;;8.73;4.53;;;;;;;17.31;61.33;101349.16;5144313;27;20043;-62
2023/10/11 07:21:48;;;;;;;7.80;4.55;;;;;;;17.27;61.50;101346.13;5144232;27;20049;-62
2023/10/11 07:27:12;;;;;;;7.30;4.35;;;;;;;17.26;61.43;101358.06;5138687;27;20053;-61
2023/10/11 07:29:42;;;;;;;6.40;3.95;;;;;;;17.25;61.32;101361.84;5136081;27;20050;-61
2023/10/11 07:32:18;;;;;;;7.33;3.87;;;;;;;17.24;61.46;101361.03;5140831;27;20494;-61
2023/10/11 07:34:48;;;;;;;5.97;3.67;;;;;;;17.25;61.50;101375.44;5145346;27;20058;-62
2023/10/11 07:37:19;;;;;;;9.55;4.65;;;;;;;17.26;61.67;101381.69;5143496;27;20061;-61
2023/10/11 07:39:48;;;;;;;7.15;4.00;;;;;;;17.26;61.46;101378.97;5143110;27;20058;-62
2023/10/11 07:42:18;;;;;;;10.68;4.65;;;;;;;17.25;61.54;101375.44;5148045;27;20080;-61
2023/10/11 07:44:50;;;;;;;10.13;4.40;;;;;;;17.27;61.57;101381.44;5141131;27;20047;-61
2023/10/11 07:47:25;;;;;;;8.75;4.32;;;;;;;17.26;61.57;101374.34;5144510;27;20049;-61
2023/10/11 07:49:56;;;;;;;9.90;4.38;;;;;;;17.27;61.48;101376.00;5138670;27;20069;-61
2023/10/11 07:52:24;;;;;;;9.48;4.13;;;;;;;17.28;61.70;101380.34;5142608;27;20059;-61
2023/10/11 07:54:55;;;;;;;10.95;4.72;;;;;;;17.29;61.74;101375.75;5143299;27;20073;-61
2023/10/11 07:57:25;;;;;;;10.77;4.47;;;;;;;17.27;61.81;101376.00;5145016;27;20046;-61
2023/10/11 07:59:57;;;;;;;7.95;3.78;;;;;;;17.29;61.58;101383.91;5145195;27;20138;-61
2023/10/11 08:02:29;;;;;;;6.90;4.68;;;;;;;17.31;61.93;101382.56;5152186;27;20046;-61
2023/10/11 08:04:59;;;;;;;11.65;5.38;;;;;;;17.31;61.73;101374.41;5144397;27;20048;-62
2023/10/11 08:07:27;;;;;;;10.38;5.25;;;;;;;17.30;61.71;101378.22;5156290;27;20047;-60
2023/10/11 08:09:56;;;;;;;10.65;4.22;;;;;;;17.28;61.87;101372.22;5151988;27;20056;-61
2023/10/11 08:12:24;;;;;;;11.38;4.53;;;;;;;17.30;61.92;101364.63;5142374;27;20046;-62
2023/10/11 08:14:56;;;;;;;9.15;4.43;;;;;;;17.31;62.05;101352.69;5163399;27;20050;-60
2023/10/11 08:17:29;;;;;;;7.95;4.07;;;;;;;17.35;61.84;101367.38;5150282;27;20050;-61
2023/10/11 08:20:01;;;;;;;9.38;4.57;;;;;;;17.34;62.01;101363.00;5159463;27;20061;-61
2023/10/11 08:22:29;;;;;;;7.18;4.53;;;;;;;17.34;61.96;101364.91;5158635;27;20039;-61
2023/10/11 08:24:58;;;;;;;8.98;4.88;;;;;;;17.35;62.25;101363.84;5148434;27;20055;-61
2023/10/11 08:27:28;;;;;;;8.20;4.25;;;;;;;17.36;62.11;101363.56;5143567;27;20240;-61
2023/10/11 08:30:07;;;;;;;10.80;4.72;;;;;;;17.35;62.25;101377.41;5154377;27;20096;-62
2023/10/11 08:32:38;;;;;;;9.35;4.30;;;;;;;17.36;62.48;101373.63;5141011;27;20052;-62
2023/10/11 08:35:10;;;;;;;9.13;4.68;;;;;;;17.36;62.44;101376.34;5163353;27;20099;-61
2023/10/11 08:37:38;;;;;;;10.27;5.07;;;;;;;17.37;62.71;101383.41;5136116;27;20055;-61
2023/10/11 08:40:19;;;;;;;11.45;4.63;;;;;;;17.43;62.57;101379.69;5155365;27;20077;-61
2023/10/11 08:42:49;;;;;;;9.95;4.78;;;;;;;17.40;62.67;101375.59;5164507;27;20047;-61
2023/10/11 08:45:24;;;;;;;13.70;5.00;;;;;;;17.35;62.77;101363.84;5150239;27;20088;-61
2023/10/11 08:47:53;;;;;;;10.93;5.45;;;;;;;17.39;63.02;101373.94;5160344;27;20039;-62
2023/10/11 08:50:23;;;;;;;21.55;5.28;;;;;;;17.45;62.88;101372.09;5144023;27;20086;-61
2023/10/11 08:52:52;;;;;;;10.45;4.78;;;;;;;17.47;62.81;101373.50;5144187;27;20072;-62
2023/10/11 08:55:24;;;;;;;14.10;5.78;;;;;;;17.45;63.06;101378.34;5139542;27;20048;-62
2023/10/11 08:57:53;;;;;;;11.23;5.38;;;;;;;17.62;63.62;101377.44;5150569;27;20072;-62
2023/10/11 09:00:31;;;;;;;7.18;4.40;;;;;;;17.54;62.67;101381.44;5152280;27;20051;-61
2023/10/11 09:03:17;;;;;;;11.98;6.18;;;;;;;17.50;63.44;101386.56;5146253;27;20110;-61
2023/10/11 09:05:47;;;;;;;10.90;5.80;;;;;;;17.48;63.41;101379.75;5150929;27;20051;-61
2023/10/11 09:08:26;;;;;;;16.13;6.32;;;;;;;17.52;63.81;101381.69;5145170;27;20100;-61
2023/10/11 09:11:11;;;;;;;11.93;5.65;;;;;;;17.50;63.41;101392.00;5146949;27;20062;-61
2023/10/11 09:13:39;;;;;;;20.35;6.20;;;;;;;17.44;63.98;101403.88;5155691;27;20046;-60
2023/10/11 09:16:12;;;;;;;11.80;5.28;;;;;;;17.53;63.73;101410.53;5147208;27;20050;-61
2023/10/11 09:18:41;;;;;;;13.38;6.05;;;;;;;17.54;63.99;101400.47;5139588;27;20047;-61
2023/10/11 09:21:17;;;;;;;11.05;6.30;;;;;;;17.52;63.89;101402.63;5158449;27;20597;-61
2023/10/11 09:23:47;;;;;;;15.52;5.75;;;;;;;17.54;64.04;101400.47;5148230;27;20113;-61
2023/10/11 09:26:21;;;;;;;16.05;6.65;;;;;;;17.55;64.19;101415.69;5147853;27;20043;-60
2023/10/11 09:28:56;;;;;;;13.30;6.22;;;;;;;17.57;64.35;101397.25;5151282;27;20051;-61
2023/10/11 09:31:25;;;;;;;14.20;6.00;;;;;;;17.58;64.26;101393.44;5149453;27;20072;-59
2023/10/11 09:33:59;;;;;;;14.00;6.50;;;;;;;17.61;64.60;101395.66;5152131;27;20039;-60
2023/10/11 09:36:29;;;;;;;10.80;6.28;;;;;;;17.62;64.63;101397.31;5147943;27;20094;-60
2023/10/11 09:38:58;;;;;;;14.18;5.93;;;;;;;17.64;64.65;101397.88;5151342;27;20042;-61
2023/10/11 09:41:28;;;;;;;19.05;6.43;;;;;;;17.67;64.78;101404.72;5156415;27;20077;-61
2023/10/11 09:43:58;;;;;;;18.08;6.68;;;;;;;17.70;64.73;101405.03;5153844;27;20072;-61
2023/10/11 09:46:29;;;;;;;12.70;5.45;;;;;;;17.69;64.86;101410.72;5145521;27;20070;-62
2023/10/11 09:48:57;;;;;;;14.85;6.93;;;;;;;17.74;65.02;101411.59;5159864;27;20110;-61
2023/10/11 09:51:26;;;;;;;12.35;6.05;;;;;;;17.73;65.13;101415.41;5148486;27;20050;-61
2023/10/11 09:54:01;;;;;;;11.63;6.18;;;;;;;17.80;65.23;101417.91;5161534;27;20047;-62
2023/10/11 09:56:44;;;;;;;13.45;6.13;;;;;;;17.78;65.81;101425.50;5149058;27;20047;-62
2023/10/11 09:59:23;;;;;;;13.05;6.00;;;;;;;17.78;65.72;101423.59;5151103;27;20058;-61
2023/10/11 10:02:02;;;;;;;10.23;5.53;;;;;;;17.81;65.67;101419.56;5156379;27;20466;-62
2023/10/11 10:05:04;;;;;;;13.23;6.22;;;;;;;17.82;66.08;101421.19;5151099;27;20043;-59
2023/10/11 10:07:42;;;;;;;13.02;6.53;;;;;;;17.84;66.06;101424.47;5151345;27;20047;-60
2023/10/11 10:10:15;;;;;;;18.10;8.13;;;;;;;17.85;67.15;101426.94;5148641;27;20047;-61
2023/10/11 10:12:56;;;;;;;17.05;7.47;;;;;;;17.86;67.17;101423.16;5152238;27;20069;-61
2023/10/11 10:15:30;;;;;;;11.38;7.50;;;;;;;17.89;67.29;101428.06;5157019;27;20081;-62
2023/10/11 10:18:19;;;;;;;15.63;7.40;;;;;;;17.87;67.04;101438.38;5151221;27;20046;-61
2023/10/11 10:20:48;;;;;;;19.42;8.40;;;;;;;17.87;67.63;101429.41;5150202;27;20039;-61
2023/10/11 10:23:29;;;;;;;14.57;7.90;;;;;;;17.92;67.54;101436.78;5154314;27;20044;-61
2023/10/11 10:26:41;;;;;;;17.75;7.55;;;;;;;17.94;67.49;101440.09;5147403;27;20098;-61
2023/10/11 10:29:14;;;;;;;15.27;7.35;;;;;;;17.94;67.68;101440.91;5155521;27;20043;-62
2023/10/11 10:32:04;;;;;;;15.07;8.00;;;;;;;17.94;67.74;101437.34;5150204;27;20741;-61
2023/10/11 10:34:33;;;;;;;11.55;7.55;;;;;;;17.96;67.59;101444.19;5147943;27;20065;-62
2023/10/11 10:37:06;;;;;;;15.50;8.80;;;;;;;17.95;67.89;101442.53;5150108;27;20522;-62
2023/10/11 10:39:46;;;;;;;13.43;7.72;;;;;;;17.99;67.40;101434.69;5143969;27;20081;-62
2023/10/11 10:42:16;;;;;;;16.73;7.50;;;;;;;17.96;67.74;101438.75;5159721;27;20446;-62
2023/10/11 10:44:54;;;;;;;14.82;7.43;;;;;;;17.96;67.75;101435.22;5135883;27;20047;-62
2023/10/11 10:47:28;;;;;;;14.02;8.13;;;;;;;17.99;67.60;101445.56;5106314;28;20047;-61
2023/10/11 10:50:02;;;;;;;19.30;9.07;;;;;;;18.04;67.77;101435.56;5107405;28;20047;-63
2023/10/11 10:52:30;;;;;;;15.20;8.35;;;;;;;18.04;67.75;101432.03;5103019;28;20036;-63
2023/10/11 10:55:02;;;;;;;11.10;7.88;;;;;;;18.03;67.48;101425.75;5110169;28;20057;-63
2023/10/11 10:57:36;;;;;;;15.30;9.27;;;;;;;18.05;67.91;101417.34;5108432;28;20054;-63
2023/10/11 11:00:08;;;;;;;15.32;8.25;;;;;;;18.05;67.64;101423.59;5103190;28;20138;-63
2023/10/11 11:02:37;;;;;;;14.85;7.75;;;;;;;18.08;68.00;101423.09;5111042;28;20138;-62
2023/10/11 11:05:13;;;;;;;15.18;9.77;;;;;;;18.08;67.99;101428.53;5103541;28;20073;-63
2023/10/11 11:07:47;;;;;;;22.52;9.57;;;;;;;18.09;68.21;101438.34;5094719;28;20076;-63
2023/10/11 11:10:19;;;;;;;16.35;9.30;;;;;;;18.08;68.12;101423.09;5110506;28;20055;-63
2023/10/11 11:12:48;;;;;;;12.95;8.27;;;;;;;18.09;68.26;101423.91;5105875;28;20447;-63
2023/10/11 11:15:20;;;;;;;17.55;8.93;;;;;;;18.06;68.33;101425.25;5103314;28;20085;-62
2023/10/11 11:17:50;;;;;;;13.70;8.35;;;;;;;18.11;68.00;101403.53;5105635;28;20046;-63
2023/10/11 11:20:28;;;;;;;18.17;8.65;;;;;;;18.10;68.21;101412.78;5113256;28;20053;-63
2023/10/11 11:22:57;;;;;;;17.42;9.13;;;;;;;18.10;68.20;101409.22;5099580;28;20048;-62
2023/10/11 11:25:27;;;;;;;16.33;8.32;;;;;;;18.05;68.28;101395.59;5107954;28;20047;-63
2023/10/11 11:28:08;;;;;;;11.77;7.90;;;;;;;18.13;68.30;101400.56;5112154;28;20040;-62
2023/10/11 11:30:36;;;;;;;22.02;8.70;;;;;;;18.11;68.04;101395.38;5101910;28;20064;-62
2023/10/11 11:33:21;;;;;;;15.77;8.50;;;;;;;18.12;68.10;101383.41;5104117;28;20046;-62
2023/10/11 11:35:52;;;;;;;18.33;8.40;;;;;;;18.12;68.04;101385.31;5104136;28;20067;-63
2023/10/11 11:38:23;;;;;;;17.25;9.13;;;;;;;18.12;68.21;101379.88;5100655;28;20051;-62
2023/10/11 11:40:51;;;;;;;17.23;8.80;;;;;;;18.10;68.27;101380.13;5091730;28;20155;-62
2023/10/11 11:43:20;;;;;;;17.42;9.18;;;;;;;18.11;68.44;101387.22;5099406;28;20044;-62
2023/10/11 11:45:56;;;;;;;20.00;9.05;;;;;;;18.11;68.42;101370.88;5128752;27;20063;-62
2023/10/11 11:48:24;;;;;;;16.10;8.82;;;;;;;18.12;68.42;101364.38;5146067;27;21298;-63
2023/10/11 11:50:56;;;;;;;15.82;9.27;;;;;;;18.14;68.40;101358.66;5156986;27;20047;-63
2023/10/11 11:53:24;;;;;;;12.73;8.23;;;;;;;18.17;68.21;101355.44;5149143;27;20057;-62
2023/10/11 11:55:51;;;;;;;14.95;8.18;;;;;;;18.17;68.36;101348.09;5145032;27;20090;-63
2023/10/11 11:58:19;;;;;;;13.57;8.43;;;;;;;18.18;68.27;101344.28;5154150;27;20079;-62
2023/10/11 12:00:59;;;;;;;16.92;8.45;;;;;;;18.21;68.09;101334.78;5147158;27;20081;-63
2023/10/11 12:03:28;;;;;;;12.73;7.72;;;;;;;18.23;68.39;101326.38;5150544;27;20054;-62
2023/10/11 12:05:59;;;;;;;11.27;7.43;;;;;;;18.27;68.22;101331.03;5151269;27;20047;-63
2023/10/11 12:08:31;;;;;;;15.45;8.57;;;;;;;18.29;68.25;101339.75;5150455;27;20054;-62
2023/10/11 12:10:59;;;;;;;22.42;8.90;;;;;;;18.30;68.38;101346.81;5154511;27;20400;-62